sensor_id;sensor_type;location;lat;lon;timestamp;P1;durP1;ratioP1;P2;durP2;ratioP2
24008;SDS011;12217;50.792;4.372;2023-07-13T00:01:27;7.45;;;2.33;;
24008;SDS011;12217;50.792;4.372;2023-07-13T00:03:53;11.23;;;2.30;;
24008;SDS011;12217;50.792;4.372;2023-07-13T00:06:19;8.88;;;1.70;;
24008;SDS011;12217;50.792;4.372;2023-07-13T00:08:45;10.07;;;2.55;;
24008;SDS011;12217;50.792;4.372;2023-07-13T00:11:12;9.55;;;2.08;;
24008;SDS011;12217;50.792;4.372;2023-07-13T00:13:38;7.53;;;2.30;;
24008;SDS011;12217;50.792;4.372;2023-07-13T00:16:04;7.35;;;2.42;;
24008;SDS011;12217;50.792;4.372;2023-07-13T00:18:30;6.05;;;2.20;;
24008;SDS011;12217;50.792;4.372;2023-07-13T00:20:56;7.65;;;2.55;;
24008;SDS011;12217;50.792;4.372;2023-07-13T00:23:29;12.23;;;2.30;;
24008;SDS011;12217;50.792;4.372;2023-07-13T00:26:06;9.32;;;2.38;;
24008;SDS011;12217;50.792;4.372;2023-07-13T00:28:33;6.22;;;2.22;;
24008;SDS011;12217;50.792;4.372;2023-07-13T00:30:59;9.63;;;2.53;;
24008;SDS011;12217;50.792;4.372;2023-07-13T00:33:25;7.53;;;2.20;;
24008;SDS011;12217;50.792;4.372;2023-07-13T00:35:53;10.50;;;2.65;;
24008;SDS011;12217;50.792;4.372;2023-07-13T00:38:20;9.05;;;2.63;;
24008;SDS011;12217;50.792;4.372;2023-07-13T00:40:45;6.68;;;2.03;;
24008;SDS011;12217;50.792;4.372;2023-07-13T00:43:16;5.35;;;2.28;;
24008;SDS011;12217;50.792;4.372;2023-07-13T00:48:09;8.95;;;2.30;;
24008;SDS011;12217;50.792;4.372;2023-07-13T00:50:39;11.02;;;2.53;;
24008;SDS011;12217;50.792;4.372;2023-07-13T00:53:06;9.25;;;2.42;;
24008;SDS011;12217;50.792;4.372;2023-07-13T00:55:33;7.22;;;2.22;;
24008;SDS011;12217;50.792;4.372;2023-07-13T00:57:59;6.90;;;2.17;;
24008;SDS011;12217;50.792;4.372;2023-07-13T01:00:25;7.85;;;2.50;;
24008;SDS011;12217;50.792;4.372;2023-07-13T01:02:52;7.55;;;2.30;;
24008;SDS011;12217;50.792;4.372;2023-07-13T01:05:19;12.23;;;2.55;;
24008;SDS011;12217;50.792;4.372;2023-07-13T01:07:46;10.85;;;2.85;;
24008;SDS011;12217;50.792;4.372;2023-07-13T01:10:14;7.47;;;2.40;;
24008;SDS011;12217;50.792;4.372;2023-07-13T01:12:40;9.20;;;2.67;;
24008;SDS011;12217;50.792;4.372;2023-07-13T01:15:32;10.07;;;2.22;;
24008;SDS011;12217;50.792;4.372;2023-07-13T01:18:11;9.40;;;2.65;;
24008;SDS011;12217;50.792;4.372;2023-07-13T01:20:40;7.93;;;2.53;;
24008;SDS011;12217;50.792;4.372;2023-07-13T01:23:07;10.07;;;1.90;;
24008;SDS011;12217;50.792;4.372;2023-07-13T01:25:35;8.27;;;2.42;;
24008;SDS011;12217;50.792;4.372;2023-07-13T01:28:05;12.00;;;2.83;;
24008;SDS011;12217;50.792;4.372;2023-07-13T01:30:33;8.88;;;2.42;;
24008;SDS011;12217;50.792;4.372;2023-07-13T01:33:00;8.63;;;2.30;;
24008;SDS011;12217;50.792;4.372;2023-07-13T01:35:28;8.10;;;2.92;;
24008;SDS011;12217;50.792;4.372;2023-07-13T01:37:54;11.65;;;3.05;;
24008;SDS011;12217;50.792;4.372;2023-07-13T01:40:21;9.63;;;2.78;;
24008;SDS011;12217;50.792;4.372;2023-07-13T01:42:47;9.10;;;2.58;;
24008;SDS011;12217;50.792;4.372;2023-07-13T01:45:13;9.70;;;2.47;;
24008;SDS011;12217;50.792;4.372;2023-07-13T01:47:39;7.63;;;2.70;;
24008;SDS011;12217;50.792;4.372;2023-07-13T01:50:05;8.93;;;2.75;;
24008;SDS011;12217;50.792;4.372;2023-07-13T01:52:31;11.43;;;3.00;;
24008;SDS011;12217;50.792;4.372;2023-07-13T01:54:56;8.85;;;2.58;;
24008;SDS011;12217;50.792;4.372;2023-07-13T01:57:22;10.98;;;3.35;;
24008;SDS011;12217;50.792;4.372;2023-07-13T01:59:48;12.52;;;2.78;;
24008;SDS011;12217;50.792;4.372;2023-07-13T02:02:13;7.80;;;2.63;;
24008;SDS011;12217;50.792;4.372;2023-07-13T02:04:39;13.43;;;2.95;;
24008;SDS011;12217;50.792;4.372;2023-07-13T02:07:05;9.85;;;2.67;;
24008;SDS011;12217;50.792;4.372;2023-07-13T02:09:30;11.73;;;2.78;;
24008;SDS011;12217;50.792;4.372;2023-07-13T02:11:56;11.07;;;2.83;;
24008;SDS011;12217;50.792;4.372;2023-07-13T02:14:22;9.88;;;2.70;;
24008;SDS011;12217;50.792;4.372;2023-07-13T02:16:48;11.85;;;3.25;;
24008;SDS011;12217;50.792;4.372;2023-07-13T02:19:13;11.63;;;3.10;;
24008;SDS011;12217;50.792;4.372;2023-07-13T02:21:39;12.25;;;3.03;;
24008;SDS011;12217;50.792;4.372;2023-07-13T02:24:05;13.52;;;2.88;;
24008;SDS011;12217;50.792;4.372;2023-07-13T02:26:31;15.00;;;3.03;;
24008;SDS011;12217;50.792;4.372;2023-07-13T02:28:56;9.13;;;2.97;;
24008;SDS011;12217;50.792;4.372;2023-07-13T02:31:22;10.02;;;2.90;;
24008;SDS011;12217;50.792;4.372;2023-07-13T02:33:48;8.57;;;2.95;;
24008;SDS011;12217;50.792;4.372;2023-07-13T02:36:13;13.00;;;3.05;;
24008;SDS011;12217;50.792;4.372;2023-07-13T02:38:41;10.60;;;3.35;;
24008;SDS011;12217;50.792;4.372;2023-07-13T02:41:07;10.73;;;3.10;;
24008;SDS011;12217;50.792;4.372;2023-07-13T02:43:34;9.52;;;3.20;;
24008;SDS011;12217;50.792;4.372;2023-07-13T02:46:00;10.57;;;3.05;;
24008;SDS011;12217;50.792;4.372;2023-07-13T02:48:32;11.95;;;3.22;;
24008;SDS011;12217;50.792;4.372;2023-07-13T02:50:58;12.30;;;3.38;;
24008;SDS011;12217;50.792;4.372;2023-07-13T02:53:23;12.98;;;3.55;;
24008;SDS011;12217;50.792;4.372;2023-07-13T02:55:49;10.45;;;3.08;;
24008;SDS011;12217;50.792;4.372;2023-07-13T02:58:15;9.68;;;3.13;;
24008;SDS011;12217;50.792;4.372;2023-07-13T03:00:44;12.30;;;3.20;;
24008;SDS011;12217;50.792;4.372;2023-07-13T03:03:11;14.30;;;3.28;;
24008;SDS011;12217;50.792;4.372;2023-07-13T03:05:41;10.43;;;3.20;;
24008;SDS011;12217;50.792;4.372;2023-07-13T03:08:08;11.45;;;3.17;;
24008;SDS011;12217;50.792;4.372;2023-07-13T03:10:34;9.98;;;3.72;;
24008;SDS011;12217;50.792;4.372;2023-07-13T03:13:00;14.65;;;3.75;;
24008;SDS011;12217;50.792;4.372;2023-07-13T03:15:26;11.77;;;3.80;;
24008;SDS011;12217;50.792;4.372;2023-07-13T03:17:52;9.02;;;3.20;;
24008;SDS011;12217;50.792;4.372;2023-07-13T03:20:17;11.13;;;3.10;;
24008;SDS011;12217;50.792;4.372;2023-07-13T03:22:43;13.45;;;3.55;;
24008;SDS011;12217;50.792;4.372;2023-07-13T03:25:09;11.60;;;3.05;;
24008;SDS011;12217;50.792;4.372;2023-07-13T03:27:35;10.90;;;3.25;;
24008;SDS011;12217;50.792;4.372;2023-07-13T03:30:01;8.98;;;3.10;;
24008;SDS011;12217;50.792;4.372;2023-07-13T03:32:28;12.05;;;3.22;;
24008;SDS011;12217;50.792;4.372;2023-07-13T03:34:53;13.43;;;3.33;;
24008;SDS011;12217;50.792;4.372;2023-07-13T03:37:19;10.70;;;3.70;;
24008;SDS011;12217;50.792;4.372;2023-07-13T03:39:44;12.93;;;3.40;;
24008;SDS011;12217;50.792;4.372;2023-07-13T03:42:11;13.48;;;3.85;;
24008;SDS011;12217;50.792;4.372;2023-07-13T03:44:36;13.15;;;3.13;;
24008;SDS011;12217;50.792;4.372;2023-07-13T03:47:02;14.30;;;3.42;;
24008;SDS011;12217;50.792;4.372;2023-07-13T03:49:28;14.75;;;3.08;;
24008;SDS011;12217;50.792;4.372;2023-07-13T03:51:54;11.50;;;3.10;;
24008;SDS011;12217;50.792;4.372;2023-07-13T03:54:19;18.63;;;4.03;;
24008;SDS011;12217;50.792;4.372;2023-07-13T03:56:45;12.00;;;3.97;;
24008;SDS011;12217;50.792;4.372;2023-07-13T03:59:10;12.52;;;4.00;;
24008;SDS011;12217;50.792;4.372;2023-07-13T04:01:36;12.73;;;3.45;;
24008;SDS011;12217;50.792;4.372;2023-07-13T04:04:01;10.98;;;3.30;;
24008;SDS011;12217;50.792;4.372;2023-07-13T04:06:28;14.52;;;3.80;;
24008;SDS011;12217;50.792;4.372;2023-07-13T04:08:56;13.48;;;3.92;;
24008;SDS011;12217;50.792;4.372;2023-07-13T04:11:24;15.52;;;4.18;;
24008;SDS011;12217;50.792;4.372;2023-07-13T04:13:51;12.55;;;3.90;;
24008;SDS011;12217;50.792;4.372;2023-07-13T04:16:17;16.65;;;4.00;;
24008;SDS011;12217;50.792;4.372;2023-07-13T04:18:43;18.00;;;3.88;;
24008;SDS011;12217;50.792;4.372;2023-07-13T04:21:10;12.45;;;4.07;;
24008;SDS011;12217;50.792;4.372;2023-07-13T04:23:37;19.05;;;4.45;;
24008;SDS011;12217;50.792;4.372;2023-07-13T04:26:02;13.90;;;4.13;;
24008;SDS011;12217;50.792;4.372;2023-07-13T04:28:28;14.13;;;3.63;;
24008;SDS011;12217;50.792;4.372;2023-07-13T04:30:54;12.00;;;3.28;;
24008;SDS011;12217;50.792;4.372;2023-07-13T04:33:20;15.02;;;3.40;;
24008;SDS011;12217;50.792;4.372;2023-07-13T04:35:49;13.20;;;3.63;;
24008;SDS011;12217;50.792;4.372;2023-07-13T04:38:19;14.20;;;3.70;;
24008;SDS011;12217;50.792;4.372;2023-07-13T04:40:45;14.77;;;4.38;;
24008;SDS011;12217;50.792;4.372;2023-07-13T04:43:11;13.77;;;4.43;;
24008;SDS011;12217;50.792;4.372;2023-07-13T04:45:36;15.85;;;3.97;;
24008;SDS011;12217;50.792;4.372;2023-07-13T04:48:02;12.98;;;3.42;;
24008;SDS011;12217;50.792;4.372;2023-07-13T04:50:28;12.18;;;3.72;;
24008;SDS011;12217;50.792;4.372;2023-07-13T04:52:53;14.07;;;4.13;;
24008;SDS011;12217;50.792;4.372;2023-07-13T04:55:19;13.18;;;3.88;;
24008;SDS011;12217;50.792;4.372;2023-07-13T04:57:46;13.73;;;3.50;;
24008;SDS011;12217;50.792;4.372;2023-07-13T05:00:12;12.38;;;3.72;;
24008;SDS011;12217;50.792;4.372;2023-07-13T05:02:40;14.63;;;3.60;;
24008;SDS011;12217;50.792;4.372;2023-07-13T05:05:08;14.65;;;3.45;;
24008;SDS011;12217;50.792;4.372;2023-07-13T05:07:34;15.43;;;3.90;;
24008;SDS011;12217;50.792;4.372;2023-07-13T05:09:59;16.67;;;4.55;;
24008;SDS011;12217;50.792;4.372;2023-07-13T05:12:25;18.95;;;4.00;;
24008;SDS011;12217;50.792;4.372;2023-07-13T05:14:51;15.32;;;3.83;;
24008;SDS011;12217;50.792;4.372;2023-07-13T05:17:17;15.95;;;4.05;;
24008;SDS011;12217;50.792;4.372;2023-07-13T05:19:42;15.20;;;4.00;;
24008;SDS011;12217;50.792;4.372;2023-07-13T05:22:08;20.95;;;4.10;;
24008;SDS011;12217;50.792;4.372;2023-07-13T05:24:34;12.70;;;3.78;;
24008;SDS011;12217;50.792;4.372;2023-07-13T05:26:59;13.63;;;3.20;;
24008;SDS011;12217;50.792;4.372;2023-07-13T05:29:25;14.95;;;3.75;;
24008;SDS011;12217;50.792;4.372;2023-07-13T05:31:50;15.48;;;3.78;;
24008;SDS011;12217;50.792;4.372;2023-07-13T05:34:16;13.00;;;3.75;;
24008;SDS011;12217;50.792;4.372;2023-07-13T05:36:42;16.10;;;3.70;;
24008;SDS011;12217;50.792;4.372;2023-07-13T05:39:07;14.73;;;3.90;;
24008;SDS011;12217;50.792;4.372;2023-07-13T05:41:33;16.98;;;3.92;;
24008;SDS011;12217;50.792;4.372;2023-07-13T05:44:00;15.48;;;3.85;;
24008;SDS011;12217;50.792;4.372;2023-07-13T05:46:26;17.23;;;4.03;;
24008;SDS011;12217;50.792;4.372;2023-07-13T05:48:52;15.70;;;3.88;;
24008;SDS011;12217;50.792;4.372;2023-07-13T05:51:18;16.33;;;4.15;;
24008;SDS011;12217;50.792;4.372;2023-07-13T05:53:43;20.77;;;4.35;;
24008;SDS011;12217;50.792;4.372;2023-07-13T05:56:09;17.13;;;4.07;;
24008;SDS011;12217;50.792;4.372;2023-07-13T05:58:34;10.50;;;3.80;;
24008;SDS011;12217;50.792;4.372;2023-07-13T06:01:01;17.15;;;3.70;;
24008;SDS011;12217;50.792;4.372;2023-07-13T06:03:29;12.98;;;4.22;;
24008;SDS011;12217;50.792;4.372;2023-07-13T06:05:55;14.57;;;4.00;;
24008;SDS011;12217;50.792;4.372;2023-07-13T06:08:20;14.43;;;3.65;;
24008;SDS011;12217;50.792;4.372;2023-07-13T06:10:46;14.57;;;3.70;;
24008;SDS011;12217;50.792;4.372;2023-07-13T06:13:11;18.08;;;4.13;;
24008;SDS011;12217;50.792;4.372;2023-07-13T06:15:37;14.32;;;4.28;;
24008;SDS011;12217;50.792;4.372;2023-07-13T06:18:03;14.50;;;3.75;;
24008;SDS011;12217;50.792;4.372;2023-07-13T06:20:28;10.90;;;3.72;;
24008;SDS011;12217;50.792;4.372;2023-07-13T06:22:54;14.75;;;4.38;;
24008;SDS011;12217;50.792;4.372;2023-07-13T06:25:20;14.13;;;4.43;;
24008;SDS011;12217;50.792;4.372;2023-07-13T06:27:46;10.95;;;4.10;;
24008;SDS011;12217;50.792;4.372;2023-07-13T06:30:11;12.02;;;4.05;;
24008;SDS011;12217;50.792;4.372;2023-07-13T06:32:37;12.68;;;3.60;;
24008;SDS011;12217;50.792;4.372;2023-07-13T06:35:03;13.27;;;4.03;;
24008;SDS011;12217;50.792;4.372;2023-07-13T06:37:29;19.90;;;4.78;;
24008;SDS011;12217;50.792;4.372;2023-07-13T06:39:54;22.55;;;4.93;;
24008;SDS011;12217;50.792;4.372;2023-07-13T06:42:20;14.35;;;3.80;;
24008;SDS011;12217;50.792;4.372;2023-07-13T06:44:45;14.85;;;3.92;;
24008;SDS011;12217;50.792;4.372;2023-07-13T06:47:11;17.85;;;4.00;;
24008;SDS011;12217;50.792;4.372;2023-07-13T06:49:37;12.27;;;3.90;;
24008;SDS011;12217;50.792;4.372;2023-07-13T06:52:02;12.27;;;4.05;;
24008;SDS011;12217;50.792;4.372;2023-07-13T06:54:29;17.80;;;4.55;;
24008;SDS011;12217;50.792;4.372;2023-07-13T06:56:54;17.40;;;4.07;;
24008;SDS011;12217;50.792;4.372;2023-07-13T06:59:20;13.95;;;4.40;;
24008;SDS011;12217;50.792;4.372;2023-07-13T07:01:45;24.55;;;4.97;;
24008;SDS011;12217;50.792;4.372;2023-07-13T07:04:11;11.75;;;3.97;;
24008;SDS011;12217;50.792;4.372;2023-07-13T07:06:36;14.13;;;4.13;;
24008;SDS011;12217;50.792;4.372;2023-07-13T07:09:02;12.02;;;4.25;;
24008;SDS011;12217;50.792;4.372;2023-07-13T07:11:28;15.00;;;3.92;;
24008;SDS011;12217;50.792;4.372;2023-07-13T07:13:53;12.73;;;4.13;;
24008;SDS011;12217;50.792;4.372;2023-07-13T07:16:20;13.10;;;4.03;;
24008;SDS011;12217;50.792;4.372;2023-07-13T07:18:46;10.15;;;3.95;;
24008;SDS011;12217;50.792;4.372;2023-07-13T07:21:12;13.27;;;3.72;;
24008;SDS011;12217;50.792;4.372;2023-07-13T07:23:39;17.90;;;4.13;;
24008;SDS011;12217;50.792;4.372;2023-07-13T07:26:06;13.68;;;4.00;;
24008;SDS011;12217;50.792;4.372;2023-07-13T07:28:33;14.70;;;4.07;;
24008;SDS011;12217;50.792;4.372;2023-07-13T07:30:59;11.80;;;3.83;;
24008;SDS011;12217;50.792;4.372;2023-07-13T07:33:25;10.32;;;3.85;;
24008;SDS011;12217;50.792;4.372;2023-07-13T07:35:50;15.57;;;3.90;;
24008;SDS011;12217;50.792;4.372;2023-07-13T07:38:16;10.57;;;3.75;;
24008;SDS011;12217;50.792;4.372;2023-07-13T07:40:42;14.18;;;4.68;;
24008;SDS011;12217;50.792;4.372;2023-07-13T07:43:09;12.90;;;3.97;;
24008;SDS011;12217;50.792;4.372;2023-07-13T07:45:36;11.52;;;3.38;;
24008;SDS011;12217;50.792;4.372;2023-07-13T07:48:02;12.90;;;3.60;;
24008;SDS011;12217;50.792;4.372;2023-07-13T07:50:29;16.33;;;4.57;;
24008;SDS011;12217;50.792;4.372;2023-07-13T07:52:55;15.23;;;4.07;;
24008;SDS011;12217;50.792;4.372;2023-07-13T07:55:21;15.07;;;4.57;;
24008;SDS011;12217;50.792;4.372;2023-07-13T07:57:47;11.30;;;3.88;;
24008;SDS011;12217;50.792;4.372;2023-07-13T08:00:14;12.98;;;3.55;;
24008;SDS011;12217;50.792;4.372;2023-07-13T08:02:40;11.07;;;3.80;;
24008;SDS011;12217;50.792;4.372;2023-07-13T08:05:06;9.98;;;3.22;;
24008;SDS011;12217;50.792;4.372;2023-07-13T08:07:37;8.23;;;3.30;;
24008;SDS011;12217;50.792;4.372;2023-07-13T08:10:05;10.95;;;3.60;;
24008;SDS011;12217;50.792;4.372;2023-07-13T08:12:35;13.27;;;3.88;;
24008;SDS011;12217;50.792;4.372;2023-07-13T08:15:02;11.77;;;3.40;;
24008;SDS011;12217;50.792;4.372;2023-07-13T08:17:29;8.18;;;3.28;;
24008;SDS011;12217;50.792;4.372;2023-07-13T08:19:54;15.00;;;3.60;;
24008;SDS011;12217;50.792;4.372;2023-07-13T08:22:20;15.52;;;3.83;;
24008;SDS011;12217;50.792;4.372;2023-07-13T08:24:46;11.35;;;3.25;;
24008;SDS011;12217;50.792;4.372;2023-07-13T08:27:12;11.23;;;3.40;;
24008;SDS011;12217;50.792;4.372;2023-07-13T08:29:38;11.60;;;3.47;;
24008;SDS011;12217;50.792;4.372;2023-07-13T08:32:05;13.80;;;3.95;;
24008;SDS011;12217;50.792;4.372;2023-07-13T08:34:34;8.45;;;3.10;;
24008;SDS011;12217;50.792;4.372;2023-07-13T08:37:01;8.68;;;3.35;;
24008;SDS011;12217;50.792;4.372;2023-07-13T08:39:27;13.57;;;4.20;;
24008;SDS011;12217;50.792;4.372;2023-07-13T08:41:56;11.43;;;3.72;;
24008;SDS011;12217;50.792;4.372;2023-07-13T08:44:39;13.57;;;3.47;;
24008;SDS011;12217;50.792;4.372;2023-07-13T08:47:12;11.05;;;3.80;;
24008;SDS011;12217;50.792;4.372;2023-07-13T08:49:40;11.23;;;3.95;;
24008;SDS011;12217;50.792;4.372;2023-07-13T08:54:41;13.05;;;3.25;;
24008;SDS011;12217;50.792;4.372;2023-07-13T08:57:14;12.30;;;3.58;;
24008;SDS011;12217;50.792;4.372;2023-07-13T08:59:43;14.13;;;3.50;;
24008;SDS011;12217;50.792;4.372;2023-07-13T09:02:26;9.98;;;3.38;;
24008;SDS011;12217;50.792;4.372;2023-07-13T09:05:04;12.10;;;3.50;;
24008;SDS011;12217;50.792;4.372;2023-07-13T09:08:03;9.55;;;2.92;;
24008;SDS011;12217;50.792;4.372;2023-07-13T09:10:46;11.80;;;2.97;;
24008;SDS011;12217;50.792;4.372;2023-07-13T09:15:51;9.57;;;3.40;;
24008;SDS011;12217;50.792;4.372;2023-07-13T09:21:04;11.20;;;3.38;;
24008;SDS011;12217;50.792;4.372;2023-07-13T09:23:41;8.20;;;3.13;;
24008;SDS011;12217;50.792;4.372;2023-07-13T09:26:16;9.90;;;2.90;;
24008;SDS011;12217;50.792;4.372;2023-07-13T09:28:48;7.80;;;2.65;;
24008;SDS011;12217;50.792;4.372;2023-07-13T09:31:19;8.52;;;3.03;;
24008;SDS011;12217;50.792;4.372;2023-07-13T09:33:49;12.27;;;3.83;;
24008;SDS011;12217;50.792;4.372;2023-07-13T09:38:50;14.63;;;3.17;;
24008;SDS011;12217;50.792;4.372;2023-07-13T09:41:37;9.18;;;2.88;;
24008;SDS011;12217;50.792;4.372;2023-07-13T09:44:17;8.73;;;2.95;;
24008;SDS011;12217;50.792;4.372;2023-07-13T09:46:53;7.93;;;2.42;;
24008;SDS011;12217;50.792;4.372;2023-07-13T09:49:24;12.82;;;3.13;;
24008;SDS011;12217;50.792;4.372;2023-07-13T09:52:04;11.43;;;2.85;;
24008;SDS011;12217;50.792;4.372;2023-07-13T09:54:35;7.85;;;3.08;;
24008;SDS011;12217;50.792;4.372;2023-07-13T09:57:02;6.63;;;3.08;;
24008;SDS011;12217;50.792;4.372;2023-07-13T09:59:39;8.98;;;2.90;;
24008;SDS011;12217;50.792;4.372;2023-07-13T10:05:04;8.80;;;2.85;;
24008;SDS011;12217;50.792;4.372;2023-07-13T10:07:32;9.60;;;2.97;;
24008;SDS011;12217;50.792;4.372;2023-07-13T10:10:12;4.75;;;2.45;;
24008;SDS011;12217;50.792;4.372;2023-07-13T10:12:43;9.95;;;2.75;;
24008;SDS011;12217;50.792;4.372;2023-07-13T10:15:13;9.30;;;2.53;;
24008;SDS011;12217;50.792;4.372;2023-07-13T10:17:41;9.00;;;2.33;;
24008;SDS011;12217;50.792;4.372;2023-07-13T10:20:09;5.20;;;2.20;;
24008;SDS011;12217;50.792;4.372;2023-07-13T10:25:23;6.75;;;2.25;;
24008;SDS011;12217;50.792;4.372;2023-07-13T10:27:51;6.25;;;2.30;;
24008;SDS011;12217;50.792;4.372;2023-07-13T10:30:38;5.32;;;2.10;;
24008;SDS011;12217;50.792;4.372;2023-07-13T10:33:09;5.90;;;2.30;;
24008;SDS011;12217;50.792;4.372;2023-07-13T10:35:37;11.70;;;2.85;;
24008;SDS011;12217;50.792;4.372;2023-07-13T10:38:07;9.73;;;2.50;;
24008;SDS011;12217;50.792;4.372;2023-07-13T10:40:37;13.38;;;2.75;;
24008;SDS011;12217;50.792;4.372;2023-07-13T10:43:10;7.70;;;2.67;;
24008;SDS011;12217;50.792;4.372;2023-07-13T10:45:46;6.45;;;2.33;;
24008;SDS011;12217;50.792;4.372;2023-07-13T10:48:15;6.43;;;2.30;;
24008;SDS011;12217;50.792;4.372;2023-07-13T10:50:42;6.72;;;2.50;;
24008;SDS011;12217;50.792;4.372;2023-07-13T10:58:19;5.30;;;2.58;;
24008;SDS011;12217;50.792;4.372;2023-07-13T11:00:53;7.05;;;2.58;;
24008;SDS011;12217;50.792;4.372;2023-07-13T11:03:31;7.53;;;2.45;;
24008;SDS011;12217;50.792;4.372;2023-07-13T11:22:48;9.02;;;2.20;;
24008;SDS011;12217;50.792;4.372;2023-07-13T11:25:33;8.00;;;2.25;;
24008;SDS011;12217;50.792;4.372;2023-07-13T11:30:38;6.28;;;2.30;;
24008;SDS011;12217;50.792;4.372;2023-07-13T11:33:15;6.50;;;2.40;;
24008;SDS011;12217;50.792;4.372;2023-07-13T11:35:46;5.15;;;2.47;;
24008;SDS011;12217;50.792;4.372;2023-07-13T11:38:45;7.88;;;2.20;;
24008;SDS011;12217;50.792;4.372;2023-07-13T11:41:50;5.28;;;2.42;;
24008;SDS011;12217;50.792;4.372;2023-07-13T11:44:18;9.20;;;2.42;;
24008;SDS011;12217;50.792;4.372;2023-07-13T11:46:50;5.53;;;2.13;;
24008;SDS011;12217;50.792;4.372;2023-07-13T11:49:18;5.68;;;2.10;;
24008;SDS011;12217;50.792;4.372;2023-07-13T11:51:44;4.53;;;2.00;;
24008;SDS011;12217;50.792;4.372;2023-07-13T11:54:22;4.63;;;2.00;;
24008;SDS011;12217;50.792;4.372;2023-07-13T11:56:58;5.43;;;2.25;;
24008;SDS011;12217;50.792;4.372;2023-07-13T11:59:26;4.82;;;2.17;;
24008;SDS011;12217;50.792;4.372;2023-07-13T12:01:54;7.43;;;2.25;;
24008;SDS011;12217;50.792;4.372;2023-07-13T12:04:23;5.30;;;2.22;;
24008;SDS011;12217;50.792;4.372;2023-07-13T12:07:23;6.22;;;2.15;;
24008;SDS011;12217;50.792;4.372;2023-07-13T12:09:42;5.43;;;1.90;;
24008;SDS011;12217;50.792;4.372;2023-07-13T12:12:12;4.13;;;2.08;;
24008;SDS011;12217;50.792;4.372;2023-07-13T12:14:39;6.53;;;2.10;;
24008;SDS011;12217;50.792;4.372;2023-07-13T12:17:09;5.18;;;1.95;;
24008;SDS011;12217;50.792;4.372;2023-07-13T12:19:45;12.38;;;2.78;;
24008;SDS011;12217;50.792;4.372;2023-07-13T12:22:12;7.05;;;1.77;;
24008;SDS011;12217;50.792;4.372;2023-07-13T12:24:43;4.43;;;1.88;;
24008;SDS011;12217;50.792;4.372;2023-07-13T12:27:23;4.00;;;1.60;;
24008;SDS011;12217;50.792;4.372;2023-07-13T12:29:53;6.70;;;2.20;;
24008;SDS011;12217;50.792;4.372;2023-07-13T12:34:53;5.18;;;1.65;;
24008;SDS011;12217;50.792;4.372;2023-07-13T12:37:21;3.50;;;1.60;;
24008;SDS011;12217;50.792;4.372;2023-07-13T12:39:48;3.15;;;1.77;;
24008;SDS011;12217;50.792;4.372;2023-07-13T12:42:27;6.20;;;2.05;;
24008;SDS011;12217;50.792;4.372;2023-07-13T12:47:41;4.38;;;2.15;;
24008;SDS011;12217;50.792;4.372;2023-07-13T12:50:14;8.20;;;2.60;;
24008;SDS011;12217;50.792;4.372;2023-07-13T12:52:50;5.35;;;2.70;;
24008;SDS011;12217;50.792;4.372;2023-07-13T12:55:21;5.57;;;2.58;;
24008;SDS011;12217;50.792;4.372;2023-07-13T12:57:51;3.60;;;2.35;;
24008;SDS011;12217;50.792;4.372;2023-07-13T13:02:54;3.90;;;2.50;;
24008;SDS011;12217;50.792;4.372;2023-07-13T13:05:21;3.67;;;2.20;;
24008;SDS011;12217;50.792;4.372;2023-07-13T13:07:50;5.57;;;2.70;;
24008;SDS011;12217;50.792;4.372;2023-07-13T13:10:16;6.90;;;2.50;;
24008;SDS011;12217;50.792;4.372;2023-07-13T13:12:42;5.18;;;2.20;;
24008;SDS011;12217;50.792;4.372;2023-07-13T13:15:08;5.63;;;2.22;;
24008;SDS011;12217;50.792;4.372;2023-07-13T13:17:34;4.00;;;2.22;;
24008;SDS011;12217;50.792;4.372;2023-07-13T13:20:00;3.38;;;2.33;;
24008;SDS011;12217;50.792;4.372;2023-07-13T13:22:26;4.72;;;2.08;;
24008;SDS011;12217;50.792;4.372;2023-07-13T13:24:52;3.47;;;1.92;;
24008;SDS011;12217;50.792;4.372;2023-07-13T13:27:18;4.72;;;2.00;;
24008;SDS011;12217;50.792;4.372;2023-07-13T13:29:45;4.60;;;1.88;;
24008;SDS011;12217;50.792;4.372;2023-07-13T13:32:13;4.55;;;2.20;;
24008;SDS011;12217;50.792;4.372;2023-07-13T13:34:40;3.33;;;1.80;;
24008;SDS011;12217;50.792;4.372;2023-07-13T13:37:16;6.57;;;2.30;;
24008;SDS011;12217;50.792;4.372;2023-07-13T13:39:44;4.93;;;1.92;;
24008;SDS011;12217;50.792;4.372;2023-07-13T13:42:10;6.78;;;1.80;;
24008;SDS011;12217;50.792;4.372;2023-07-13T13:44:36;2.67;;;1.80;;
24008;SDS011;12217;50.792;4.372;2023-07-13T13:47:02;5.00;;;1.80;;
24008;SDS011;12217;50.792;4.372;2023-07-13T13:49:29;5.30;;;1.90;;
24008;SDS011;12217;50.792;4.372;2023-07-13T13:51:55;5.18;;;2.00;;
24008;SDS011;12217;50.792;4.372;2023-07-13T13:54:22;4.22;;;1.90;;
24008;SDS011;12217;50.792;4.372;2023-07-13T13:56:50;3.50;;;1.80;;
24008;SDS011;12217;50.792;4.372;2023-07-13T13:59:16;3.28;;;1.60;;
24008;SDS011;12217;50.792;4.372;2023-07-13T14:01:43;3.95;;;2.03;;
24008;SDS011;12217;50.792;4.372;2023-07-13T14:04:20;5.47;;;1.90;;
24008;SDS011;12217;50.792;4.372;2023-07-13T14:06:47;3.95;;;2.03;;
24008;SDS011;12217;50.792;4.372;2023-07-13T14:09:16;4.15;;;2.08;;
24008;SDS011;12217;50.792;4.372;2023-07-13T14:11:44;5.15;;;2.08;;
24008;SDS011;12217;50.792;4.372;2023-07-13T14:14:19;4.93;;;1.75;;
24008;SDS011;12217;50.792;4.372;2023-07-13T14:16:47;2.80;;;1.90;;
24008;SDS011;12217;50.792;4.372;2023-07-13T14:19:18;3.67;;;2.10;;
24008;SDS011;12217;50.792;4.372;2023-07-13T14:21:44;5.15;;;2.30;;
24008;SDS011;12217;50.792;4.372;2023-07-13T14:24:09;4.28;;;2.10;;
24008;SDS011;12217;50.792;4.372;2023-07-13T14:26:36;4.85;;;2.40;;
24008;SDS011;12217;50.792;4.372;2023-07-13T14:29:04;6.30;;;2.30;;
24008;SDS011;12217;50.792;4.372;2023-07-13T14:31:36;5.85;;;2.30;;
24008;SDS011;12217;50.792;4.372;2023-07-13T14:34:02;3.00;;;1.98;;
24008;SDS011;12217;50.792;4.372;2023-07-13T14:36:28;5.70;;;2.67;;
24008;SDS011;12217;50.792;4.372;2023-07-13T14:38:56;4.55;;;2.40;;
24008;SDS011;12217;50.792;4.372;2023-07-13T14:41:23;4.57;;;2.70;;
24008;SDS011;12217;50.792;4.372;2023-07-13T14:43:50;5.68;;;2.70;;
24008;SDS011;12217;50.792;4.372;2023-07-13T14:46:28;3.92;;;2.92;;
24008;SDS011;12217;50.792;4.372;2023-07-13T14:48:59;5.88;;;2.67;;
24008;SDS011;12217;50.792;4.372;2023-07-13T14:51:38;5.53;;;2.65;;
24008;SDS011;12217;50.792;4.372;2023-07-13T14:54:04;4.68;;;2.63;;
24008;SDS011;12217;50.792;4.372;2023-07-13T14:56:31;5.60;;;2.53;;
24008;SDS011;12217;50.792;4.372;2023-07-13T14:58:56;5.18;;;2.55;;
24008;SDS011;12217;50.792;4.372;2023-07-13T15:01:22;5.10;;;2.90;;
24008;SDS011;12217;50.792;4.372;2023-07-13T15:03:49;3.78;;;2.50;;
24008;SDS011;12217;50.792;4.372;2023-07-13T15:06:17;4.53;;;2.50;;
24008;SDS011;12217;50.792;4.372;2023-07-13T15:08:43;5.40;;;2.50;;
24008;SDS011;12217;50.792;4.372;2023-07-13T15:11:09;3.85;;;2.35;;
24008;SDS011;12217;50.792;4.372;2023-07-13T15:13:39;4.13;;;2.25;;
24008;SDS011;12217;50.792;4.372;2023-07-13T15:16:26;4.55;;;2.45;;
24008;SDS011;12217;50.792;4.372;2023-07-13T15:18:51;4.00;;;2.30;;
24008;SDS011;12217;50.792;4.372;2023-07-13T15:21:19;5.45;;;2.45;;
24008;SDS011;12217;50.792;4.372;2023-07-13T15:23:47;5.28;;;2.20;;
24008;SDS011;12217;50.792;4.372;2023-07-13T15:26:14;4.80;;;2.00;;
24008;SDS011;12217;50.792;4.372;2023-07-13T15:28:41;4.55;;;2.30;;
24008;SDS011;12217;50.792;4.372;2023-07-13T15:31:17;3.30;;;1.80;;
24008;SDS011;12217;50.792;4.372;2023-07-13T15:33:51;3.55;;;1.95;;
24008;SDS011;12217;50.792;4.372;2023-07-13T15:36:20;5.03;;;2.05;;
24008;SDS011;12217;50.792;4.372;2023-07-13T15:38:47;5.85;;;1.75;;